sensor_id;sensor_type;location;lat;lon;timestamp;pressure;altitude;pressure_sealevel;temperature;humidity
61900;BME280;47853;55.890;37.664;2023-12-20T00:00:13;97461.78;;;6.30;100.00
61900;BME280;47853;55.890;37.664;2023-12-20T00:02:38;97444.53;;;6.78;100.00
61900;BME280;47853;55.890;37.664;2023-12-20T00:05:04;97471.69;;;6.06;100.00
61900;BME280;47853;55.890;37.664;2023-12-20T00:07:30;97461.84;;;6.37;100.00
61900;BME280;47853;55.890;37.664;2023-12-20T00:09:55;97464.91;;;6.62;100.00
61900;BME280;47853;55.890;37.664;2023-12-20T00:12:21;97470.25;;;6.69;100.00
61900;BME280;47853;55.890;37.664;2023-12-20T00:14:46;97458.28;;;6.45;100.00
61900;BME280;47853;55.890;37.664;2023-12-20T00:17:12;97469.25;;;6.48;100.00
61900;BME280;47853;55.890;37.664;2023-12-20T00:19:37;97459.59;;;7.41;100.00
61900;BME280;47853;55.890;37.664;2023-12-20T00:22:02;97465.59;;;7.28;100.00
61900;BME280;47853;55.890;37.664;2023-12-20T00:24:28;97471.50;;;6.73;100.00
61900;BME280;47853;55.890;37.664;2023-12-20T00:26:53;97478.47;;;6.81;100.00
61900;BME280;47853;55.890;37.664;2023-12-20T00:29:19;97497.19;;;6.06;100.00
61900;BME280;47853;55.890;37.664;2023-12-20T00:31:44;97472.56;;;6.79;100.00
61900;BME280;47853;55.890;37.664;2023-12-20T00:34:10;97469.69;;;6.30;100.00
61900;BME280;47853;55.890;37.664;2023-12-20T00:36:35;97477.41;;;7.32;100.00
61900;BME280;47853;55.890;37.664;2023-12-20T00:39:01;97490.97;;;6.50;100.00
61900;BME280;47853;55.890;37.664;2023-12-20T00:41:26;97485.53;;;6.52;100.00
61900;BME280;47853;55.890;37.664;2023-12-20T00:43:52;97493.31;;;5.72;100.00
61900;BME280;47853;55.890;37.664;2023-12-20T00:46:17;97478.59;;;6.07;100.00
61900;BME280;47853;55.890;37.664;2023-12-20T00:48:42;97487.31;;;6.95;100.00
61900;BME280;47853;55.890;37.664;2023-12-20T00:51:08;97490.66;;;6.38;100.00
61900;BME280;47853;55.890;37.664;2023-12-20T00:53:33;97486.97;;;5.81;100.00
61900;BME280;47853;55.890;37.664;2023-12-20T00:55:59;97481.88;;;7.03;100.00
61900;BME280;47853;55.890;37.664;2023-12-20T00:58:24;97478.88;;;6.56;100.00
61900;BME280;47853;55.890;37.664;2023-12-20T01:00:50;97483.34;;;6.19;100.00
61900;BME280;47853;55.890;37.664;2023-12-20T01:03:15;97465.19;;;6.46;100.00
61900;BME280;47853;55.890;37.664;2023-12-20T01:05:40;97470.88;;;6.71;100.00
61900;BME280;47853;55.890;37.664;2023-12-20T01:08:06;97461.97;;;6.72;100.00
61900;BME280;47853;55.890;37.664;2023-12-20T01:10:31;97471.75;;;6.57;100.00
61900;BME280;47853;55.890;37.664;2023-12-20T01:12:57;97445.56;;;6.77;100.00
61900;BME280;47853;55.890;37.664;2023-12-20T01:15:22;97447.28;;;6.41;100.00
61900;BME280;47853;55.890;37.664;2023-12-20T01:17:48;97454.47;;;6.76;100.00
61900;BME280;47853;55.890;37.664;2023-12-20T01:20:13;97458.56;;;6.13;100.00
61900;BME280;47853;55.890;37.664;2023-12-20T01:22:39;97466.91;;;6.38;100.00
61900;BME280;47853;55.890;37.664;2023-12-20T01:25:04;97449.22;;;6.11;100.00
61900;BME280;47853;55.890;37.664;2023-12-20T01:27:30;97429.22;;;6.38;100.00
61900;BME280;47853;55.890;37.664;2023-12-20T01:29:55;97458.63;;;5.68;100.00
61900;BME280;47853;55.890;37.664;2023-12-20T01:32:21;97453.94;;;6.00;100.00
61900;BME280;47853;55.890;37.664;2023-12-20T01:34:46;97450.34;;;6.01;100.00
61900;BME280;47853;55.890;37.664;2023-12-20T01:37:11;97444.81;;;6.18;100.00
61900;BME280;47853;55.890;37.664;2023-12-20T01:39:37;97444.31;;;6.07;100.00
61900;BME280;47853;55.890;37.664;2023-12-20T01:42:02;97450.59;;;5.91;100.00
61900;BME280;47853;55.890;37.664;2023-12-20T01:44:28;97444.50;;;7.00;100.00
61900;BME280;47853;55.890;37.664;2023-12-20T01:46:54;97430.03;;;6.89;100.00
61900;BME280;47853;55.890;37.664;2023-12-20T01:49:20;97430.31;;;7.01;100.00
61900;BME280;47853;55.890;37.664;2023-12-20T01:51:46;97434.28;;;5.81;100.00
61900;BME280;47853;55.890;37.664;2023-12-20T01:54:12;97415.88;;;6.03;100.00
61900;BME280;47853;55.890;37.664;2023-12-20T01:56:38;97431.16;;;5.92;100.00
61900;BME280;47853;55.890;37.664;2023-12-20T01:59:04;97412.56;;;5.79;100.00
61900;BME280;47853;55.890;37.664;2023-12-20T02:01:31;97436.28;;;6.16;100.00
61900;BME280;47853;55.890;37.664;2023-12-20T02:03:57;97423.03;;;5.57;100.00
61900;BME280;47853;55.890;37.664;2023-12-20T02:06:23;97417.59;;;6.11;100.00
61900;BME280;47853;55.890;37.664;2023-12-20T02:08:50;97444.38;;;5.47;100.00
61900;BME280;47853;55.890;37.664;2023-12-20T02:11:16;97421.41;;;5.93;100.00
61900;BME280;47853;55.890;37.664;2023-12-20T02:13:41;97409.31;;;6.14;100.00
61900;BME280;47853;55.890;37.664;2023-12-20T02:16:07;97415.03;;;6.39;100.00
61900;BME280;47853;55.890;37.664;2023-12-20T02:18:32;97410.28;;;6.34;100.00
61900;BME280;47853;55.890;37.664;2023-12-20T02:20:58;97397.50;;;6.31;100.00
61900;BME280;47853;55.890;37.664;2023-12-20T02:23:23;97402.81;;;5.58;100.00
61900;BME280;47853;55.890;37.664;2023-12-20T02:25:49;97404.59;;;6.09;100.00
61900;BME280;47853;55.890;37.664;2023-12-20T02:28:14;97397.66;;;6.51;100.00
61900;BME280;47853;55.890;37.664;2023-12-20T02:30:40;97412.72;;;6.58;100.00
61900;BME280;47853;55.890;37.664;2023-12-20T02:33:08;97407.84;;;6.55;100.00
61900;BME280;47853;55.890;37.664;2023-12-20T02:35:35;97408.88;;;6.32;100.00
61900;BME280;47853;55.890;37.664;2023-12-20T02:38:01;97388.41;;;6.12;100.00
61900;BME280;47853;55.890;37.664;2023-12-20T02:40:26;97394.03;;;6.52;100.00
61900;BME280;47853;55.890;37.664;2023-12-20T02:42:52;97418.34;;;6.04;100.00
61900;BME280;47853;55.890;37.664;2023-12-20T02:45:17;97416.97;;;5.93;100.00
61900;BME280;47853;55.890;37.664;2023-12-20T02:47:43;97420.28;;;6.17;100.00
61900;BME280;47853;55.890;37.664;2023-12-20T02:50:08;97426.06;;;7.06;100.00
61900;BME280;47853;55.890;37.664;2023-12-20T02:52:33;97431.28;;;5.69;100.00
61900;BME280;47853;55.890;37.664;2023-12-20T02:54:59;97426.00;;;5.84;100.00
61900;BME280;47853;55.890;37.664;2023-12-20T02:57:24;97421.69;;;5.98;100.00
61900;BME280;47853;55.890;37.664;2023-12-20T02:59:50;97423.13;;;5.64;100.00
61900;BME280;47853;55.890;37.664;2023-12-20T03:02:15;97405.34;;;6.46;100.00
61900;BME280;47853;55.890;37.664;2023-12-20T03:04:40;97409.97;;;5.64;100.00
61900;BME280;47853;55.890;37.664;2023-12-20T03:07:06;97410.19;;;6.21;100.00
61900;BME280;47853;55.890;37.664;2023-12-20T03:09:31;97409.31;;;5.99;100.00
61900;BME280;47853;55.890;37.664;2023-12-20T03:11:57;97402.28;;;6.21;100.00
61900;BME280;47853;55.890;37.664;2023-12-20T03:14:22;97407.22;;;5.72;100.00
61900;BME280;47853;55.890;37.664;2023-12-20T03:16:50;97406.69;;;5.77;100.00
61900;BME280;47853;55.890;37.664;2023-12-20T03:19:17;97403.34;;;6.27;100.00
61900;BME280;47853;55.890;37.664;2023-12-20T03:21:43;97420.72;;;5.84;100.00
61900;BME280;47853;55.890;37.664;2023-12-20T03:24:08;97417.47;;;6.19;100.00
61900;BME280;47853;55.890;37.664;2023-12-20T03:26:34;97418.63;;;6.16;100.00
61900;BME280;47853;55.890;37.664;2023-12-20T03:28:59;97419.91;;;6.42;100.00
61900;BME280;47853;55.890;37.664;2023-12-20T03:31:24;97418.00;;;5.77;100.00
61900;BME280;47853;55.890;37.664;2023-12-20T03:33:50;97433.69;;;6.01;100.00
61900;BME280;47853;55.890;37.664;2023-12-20T03:36:15;97407.47;;;5.77;100.00
61900;BME280;47853;55.890;37.664;2023-12-20T03:38:41;97410.19;;;5.32;100.00
61900;BME280;47853;55.890;37.664;2023-12-20T03:41:06;97414.94;;;6.54;100.00
61900;BME280;47853;55.890;37.664;2023-12-20T03:43:32;97422.81;;;6.26;100.00
61900;BME280;47853;55.890;37.664;2023-12-20T03:45:57;97419.69;;;6.00;100.00
61900;BME280;47853;55.890;37.664;2023-12-20T03:48:23;97432.03;;;6.00;100.00
61900;BME280;47853;55.890;37.664;2023-12-20T03:50:48;97423.19;;;5.71;100.00
61900;BME280;47853;55.890;37.664;2023-12-20T03:53:14;97429.50;;;5.25;100.00
61900;BME280;47853;55.890;37.664;2023-12-20T03:55:39;97428.50;;;6.29;100.00
61900;BME280;47853;55.890;37.664;2023-12-20T03:58:05;97441.47;;;6.09;100.00
61900;BME280;47853;55.890;37.664;2023-12-20T04:00:30;97427.16;;;5.30;100.00
61900;BME280;47853;55.890;37.664;2023-12-20T04:02:55;97435.59;;;5.40;100.00
61900;BME280;47853;55.890;37.664;2023-12-20T04:05:21;97426.50;;;6.09;100.00
61900;BME280;47853;55.890;37.664;2023-12-20T04:07:46;97419.69;;;5.48;100.00
61900;BME280;47853;55.890;37.664;2023-12-20T04:10:12;97422.66;;;5.75;100.00
61900;BME280;47853;55.890;37.664;2023-12-20T04:12:37;97413.53;;;6.30;100.00
61900;BME280;47853;55.890;37.664;2023-12-20T04:15:03;97431.78;;;5.28;100.00
61900;BME280;47853;55.890;37.664;2023-12-20T04:17:28;97427.38;;;5.80;100.00
61900;BME280;47853;55.890;37.664;2023-12-20T04:19:54;97427.69;;;5.55;100.00
61900;BME280;47853;55.890;37.664;2023-12-20T04:22:19;97421.72;;;5.31;100.00
61900;BME280;47853;55.890;37.664;2023-12-20T04:24:45;97407.44;;;5.56;100.00
61900;BME280;47853;55.890;37.664;2023-12-20T04:27:11;97428.66;;;5.69;100.00
61900;BME280;47853;55.890;37.664;2023-12-20T04:29:36;97418.75;;;5.71;100.00
61900;BME280;47853;55.890;37.664;2023-12-20T04:32:01;97420.91;;;5.83;100.00
61900;BME280;47853;55.890;37.664;2023-12-20T04:34:27;97434.03;;;5.98;100.00
61900;BME280;47853;55.890;37.664;2023-12-20T04:36:53;97415.78;;;5.59;100.00
61900;BME280;47853;55.890;37.664;2023-12-20T04:39:19;97434.91;;;5.83;100.00
61900;BME280;47853;55.890;37.664;2023-12-20T04:41:44;97436.59;;;5.39;100.00
61900;BME280;47853;55.890;37.664;2023-12-20T04:44:10;97429.50;;;4.94;100.00
61900;BME280;47853;55.890;37.664;2023-12-20T04:46:35;97430.84;;;5.65;100.00
61900;BME280;47853;55.890;37.664;2023-12-20T04:49:01;97437.91;;;6.17;100.00
61900;BME280;47853;55.890;37.664;2023-12-20T04:51:26;97431.50;;;5.53;100.00
61900;BME280;47853;55.890;37.664;2023-12-20T04:53:52;97434.41;;;6.09;100.00
61900;BME280;47853;55.890;37.664;2023-12-20T04:56:17;97424.41;;;5.53;100.00
61900;BME280;47853;55.890;37.664;2023-12-20T04:58:43;97442.06;;;6.26;100.00
61900;BME280;47853;55.890;37.664;2023-12-20T05:01:09;97450.91;;;6.18;100.00
61900;BME280;47853;55.890;37.664;2023-12-20T05:03:35;97441.28;;;7.04;100.00
61900;BME280;47853;55.890;37.664;2023-12-20T05:06:00;97445.44;;;6.20;100.00
61900;BME280;47853;55.890;37.664;2023-12-20T05:08:25;97438.84;;;5.57;100.00
61900;BME280;47853;55.890;37.664;2023-12-20T05:10:54;97444.56;;;6.13;100.00
61900;BME280;47853;55.890;37.664;2023-12-20T05:13:20;97446.59;;;6.54;100.00
61900;BME280;47853;55.890;37.664;2023-12-20T05:15:45;97427.59;;;6.00;100.00
61900;BME280;47853;55.890;37.664;2023-12-20T05:18:11;97451.59;;;6.71;100.00
61900;BME280;47853;55.890;37.664;2023-12-20T05:20:37;97437.41;;;6.28;100.00
61900;BME280;47853;55.890;37.664;2023-12-20T05:23:02;97442.31;;;5.58;100.00
61900;BME280;47853;55.890;37.664;2023-12-20T05:25:28;97460.31;;;5.91;100.00
61900;BME280;47853;55.890;37.664;2023-12-20T05:27:53;97458.66;;;6.05;100.00
61900;BME280;47853;55.890;37.664;2023-12-20T05:30:19;97450.22;;;6.31;100.00
61900;BME280;47853;55.890;37.664;2023-12-20T05:32:44;97453.38;;;6.20;100.00
61900;BME280;47853;55.890;37.664;2023-12-20T05:35:10;97444.25;;;5.86;100.00
61900;BME280;47853;55.890;37.664;2023-12-20T05:37:35;97468.09;;;6.14;100.00
61900;BME280;47853;55.890;37.664;2023-12-20T05:40:00;97469.78;;;5.85;100.00
61900;BME280;47853;55.890;37.664;2023-12-20T05:42:26;97470.47;;;6.09;100.00
61900;BME280;47853;55.890;37.664;2023-12-20T05:44:51;97462.53;;;5.12;100.00
61900;BME280;47853;55.890;37.664;2023-12-20T05:47:17;97476.41;;;5.81;100.00
61900;BME280;47853;55.890;37.664;2023-12-20T05:49:43;97469.88;;;5.77;100.00
61900;BME280;47853;55.890;37.664;2023-12-20T05:52:09;97453.28;;;5.61;100.00
61900;BME280;47853;55.890;37.664;2023-12-20T05:54:34;97471.16;;;5.36;100.00
61900;BME280;47853;55.890;37.664;2023-12-20T05:57:00;97459.63;;;5.82;100.00
61900;BME280;47853;55.890;37.664;2023-12-20T05:59:25;97462.09;;;5.54;100.00
61900;BME280;47853;55.890;37.664;2023-12-20T06:01:51;97455.38;;;5.36;100.00
61900;BME280;47853;55.890;37.664;2023-12-20T06:04:16;97463.03;;;6.13;100.00
61900;BME280;47853;55.890;37.664;2023-12-20T06:06:42;97467.13;;;6.00;100.00
61900;BME280;47853;55.890;37.664;2023-12-20T06:09:08;97463.66;;;6.15;100.00
61900;BME280;47853;55.890;37.664;2023-12-20T06:11:34;97468.28;;;5.98;100.00
61900;BME280;47853;55.890;37.664;2023-12-20T06:13:59;97484.97;;;5.38;100.00
61900;BME280;47853;55.890;37.664;2023-12-20T06:16:25;97459.53;;;5.75;100.00
61900;BME280;47853;55.890;37.664;2023-12-20T06:18:50;97468.06;;;5.62;100.00
61900;BME280;47853;55.890;37.664;2023-12-20T06:21:16;97472.63;;;5.54;100.00
61900;BME280;47853;55.890;37.664;2023-12-20T06:23:41;97484.22;;;5.89;100.00
61900;BME280;47853;55.890;37.664;2023-12-20T06:26:06;97475.28;;;5.54;100.00
61900;BME280;47853;55.890;37.664;2023-12-20T06:28:32;97475.31;;;6.05;100.00
61900;BME280;47853;55.890;37.664;2023-12-20T06:30:57;97488.50;;;5.45;100.00
61900;BME280;47853;55.890;37.664;2023-12-20T06:33:23;97481.31;;;5.84;100.00
61900;BME280;47853;55.890;37.664;2023-12-20T06:35:49;97489.66;;;5.13;100.00
61900;BME280;47853;55.890;37.664;2023-12-20T06:38:14;97507.50;;;5.41;100.00
61900;BME280;47853;55.890;37.664;2023-12-20T06:40:40;97481.69;;;5.51;100.00
61900;BME280;47853;55.890;37.664;2023-12-20T06:43:05;97490.50;;;5.43;100.00
61900;BME280;47853;55.890;37.664;2023-12-20T06:45:31;97499.13;;;5.52;100.00
61900;BME280;47853;55.890;37.664;2023-12-20T06:47:56;97495.97;;;5.42;100.00
61900;BME280;47853;55.890;37.664;2023-12-20T06:50:22;97484.78;;;5.70;100.00
61900;BME280;47853;55.890;37.664;2023-12-20T06:52:47;97481.59;;;6.04;100.00
61900;BME280;47853;55.890;37.664;2023-12-20T06:55:12;97494.19;;;5.94;100.00
61900;BME280;47853;55.890;37.664;2023-12-20T06:57:38;97507.56;;;5.77;100.00
61900;BME280;47853;55.890;37.664;2023-12-20T07:00:04;97492.66;;;5.85;100.00
61900;BME280;47853;55.890;37.664;2023-12-20T07:02:29;97494.75;;;6.04;100.00
61900;BME280;47853;55.890;37.664;2023-12-20T07:04:55;97490.84;;;6.00;100.00
61900;BME280;47853;55.890;37.664;2023-12-20T07:07:20;97485.56;;;6.80;100.00
61900;BME280;47853;55.890;37.664;2023-12-20T07:09:45;97489.09;;;6.44;100.00
61900;BME280;47853;55.890;37.664;2023-12-20T07:12:11;97502.53;;;6.71;100.00
61900;BME280;47853;55.890;37.664;2023-12-20T07:14:36;97490.75;;;6.67;100.00
61900;BME280;47853;55.890;37.664;2023-12-20T07:17:02;97486.50;;;6.07;100.00
61900;BME280;47853;55.890;37.664;2023-12-20T07:19:28;97487.56;;;6.57;100.00
61900;BME280;47853;55.890;37.664;2023-12-20T07:21:53;97504.13;;;5.32;100.00
61900;BME280;47853;55.890;37.664;2023-12-20T07:24:18;97517.25;;;5.17;100.00
61900;BME280;47853;55.890;37.664;2023-12-20T07:26:44;97504.66;;;5.87;100.00
61900;BME280;47853;55.890;37.664;2023-12-20T07:29:09;97495.19;;;5.93;100.00
61900;BME280;47853;55.890;37.664;2023-12-20T07:31:35;97496.75;;;5.72;100.00
61900;BME280;47853;55.890;37.664;2023-12-20T07:34:00;97506.72;;;5.92;100.00
61900;BME280;47853;55.890;37.664;2023-12-20T07:36:25;97528.00;;;5.45;100.00
61900;BME280;47853;55.890;37.664;2023-12-20T07:38:51;97492.97;;;5.60;100.00
61900;BME280;47853;55.890;37.664;2023-12-20T07:41:16;97496.41;;;5.45;100.00
61900;BME280;47853;55.890;37.664;2023-12-20T07:43:42;97512.19;;;5.90;100.00
61900;BME280;47853;55.890;37.664;2023-12-20T07:46:08;97531.16;;;5.86;100.00
61900;BME280;47853;55.890;37.664;2023-12-20T07:48:42;97517.91;;;5.94;100.00
61900;BME280;47853;55.890;37.664;2023-12-20T07:51:18;97526.22;;;5.76;100.00
61900;BME280;47853;55.890;37.664;2023-12-20T07:53:46;97502.66;;;5.59;100.00
61900;BME280;47853;55.890;37.664;2023-12-20T07:56:18;97520.06;;;5.15;100.00
61900;BME280;47853;55.890;37.664;2023-12-20T07:58:49;97495.47;;;5.98;100.00
61900;BME280;47853;55.890;37.664;2023-12-20T08:06:47;97497.31;;;5.37;100.00
61900;BME280;47853;55.890;37.664;2023-12-20T08:09:12;97542.91;;;5.83;100.00
61900;BME280;47853;55.890;37.664;2023-12-20T08:11:47;97538.25;;;5.40;100.00
61900;BME280;47853;55.890;37.664;2023-12-20T08:14:13;97509.66;;;5.97;100.00
61900;BME280;47853;55.890;37.664;2023-12-20T08:16:50;97480.44;;;5.77;100.00
61900;BME280;47853;55.890;37.664;2023-12-20T08:19:25;97497.50;;;5.51;100.00
61900;BME280;47853;55.890;37.664;2023-12-20T08:21:59;97463.50;;;5.86;100.00
61900;BME280;47853;55.890;37.664;2023-12-20T08:24:24;97475.78;;;6.52;100.00
61900;BME280;47853;55.890;37.664;2023-12-20T08:27:02;97463.03;;;6.13;100.00
61900;BME280;47853;55.890;37.664;2023-12-20T08:29:48;97500.84;;;6.42;100.00
61900;BME280;47853;55.890;37.664;2023-12-20T08:32:30;97459.22;;;6.00;100.00
61900;BME280;47853;55.890;37.664;2023-12-20T08:35:04;97491.38;;;5.95;100.00
61900;BME280;47853;55.890;37.664;2023-12-20T08:37:46;97508.31;;;6.01;100.00
61900;BME280;47853;55.890;37.664;2023-12-20T08:40:12;97483.75;;;6.37;100.00
61900;BME280;47853;55.890;37.664;2023-12-20T08:45:51;97447.59;;;6.31;100.00
61900;BME280;47853;55.890;37.664;2023-12-20T08:48:43;97513.28;;;6.48;100.00
61900;BME280;47853;55.890;37.664;2023-12-20T08:51:16;97462.16;;;6.27;100.00
61900;BME280;47853;55.890;37.664;2023-12-20T08:53:41;97476.41;;;6.55;100.00
61900;BME280;47853;55.890;37.664;2023-12-20T08:56:10;97448.41;;;6.32;100.00
61900;BME280;47853;55.890;37.664;2023-12-20T09:05:04;97482.88;;;7.02;100.00
61900;BME280;47853;55.890;37.664;2023-12-20T09:07:32;97449.38;;;5.94;100.00
61900;BME280;47853;55.890;37.664;2023-12-20T09:16:32;97463.72;;;6.21;100.00
61900;BME280;47853;55.890;37.664;2023-12-20T09:19:27;97454.00;;;6.94;100.00
61900;BME280;47853;55.890;37.664;2023-12-20T09:41:28;97526.38;;;6.41;100.00
61900;BME280;47853;55.890;37.664;2023-12-20T09:44:13;97459.00;;;5.50;100.00
61900;BME280;47853;55.890;37.664;2023-12-20T09:46:44;97465.06;;;5.80;100.00
61900;BME280;47853;55.890;37.664;2023-12-20T09:49:16;97466.16;;;6.23;100.00
61900;BME280;47853;55.890;37.664;2023-12-20T09:51:43;97474.06;;;5.71;100.00
61900;BME280;47853;55.890;37.664;2023-12-20T09:54:30;97451.09;;;6.38;100.00
61900;BME280;47853;55.890;37.664;2023-12-20T09:57:08;97441.34;;;6.17;100.00
61900;BME280;47853;55.890;37.664;2023-12-20T09:59:34;97452.75;;;6.61;100.00
61900;BME280;47853;55.890;37.664;2023-12-20T10:02:01;97482.06;;;6.73;100.00
61900;BME280;47853;55.890;37.664;2023-12-20T10:04:32;97466.63;;;6.48;100.00
61900;BME280;47853;55.890;37.664;2023-12-20T10:07:02;97464.78;;;6.27;100.00
61900;BME280;47853;55.890;37.664;2023-12-20T10:09:28;97507.88;;;6.56;100.00
61900;BME280;47853;55.890;37.664;2023-12-20T10:11:56;97505.00;;;6.51;100.00
61900;BME280;47853;55.890;37.664;2023-12-20T10:14:22;97507.09;;;7.34;100.00
61900;BME280;47853;55.890;37.664;2023-12-20T10:16:48;97504.78;;;7.60;100.00
61900;BME280;47853;55.890;37.664;2023-12-20T10:19:16;97493.84;;;6.56;100.00
61900;BME280;47853;55.890;37.664;2023-12-20T10:21:42;97503.16;;;6.51;100.00
61900;BME280;47853;55.890;37.664;2023-12-20T10:24:07;97508.06;;;6.76;100.00
61900;BME280;47853;55.890;37.664;2023-12-20T10:26:33;97511.13;;;6.36;100.00
61900;BME280;47853;55.890;37.664;2023-12-20T10:29:01;97517.88;;;7.11;100.00
61900;BME280;47853;55.890;37.664;2023-12-20T10:31:33;97513.91;;;6.72;100.00
61900;BME280;47853;55.890;37.664;2023-12-20T10:34:00;97523.72;;;7.06;100.00
61900;BME280;47853;55.890;37.664;2023-12-20T10:36:26;97514.13;;;6.33;100.00
61900;BME280;47853;55.890;37.664;2023-12-20T10:38:53;97524.06;;;6.96;100.00
61900;BME280;47853;55.890;37.664;2023-12-20T10:43:51;97506.06;;;7.35;100.00
61900;BME280;47853;55.890;37.664;2023-12-20T10:46:19;97517.94;;;7.18;100.00
61900;BME280;47853;55.890;37.664;2023-12-20T10:48:45;97512.13;;;7.29;100.00
61900;BME280;47853;55.890;37.664;2023-12-20T10:51:12;97519.59;;;6.97;100.00
61900;BME280;47853;55.890;37.664;2023-12-20T10:53:39;97503.53;;;6.92;100.00
61900;BME280;47853;55.890;37.664;2023-12-20T10:56:07;97513.19;;;6.41;100.00
61900;BME280;47853;55.890;37.664;2023-12-20T10:58:34;97498.25;;;6.92;100.00
61900;BME280;47853;55.890;37.664;2023-12-20T11:01:02;97519.19;;;6.50;100.00
61900;BME280;47853;55.890;37.664;2023-12-20T11:03:35;97514.53;;;6.95;100.00
61900;BME280;47853;55.890;37.664;2023-12-20T11:06:10;97501.28;;;6.67;100.00
61900;BME280;47853;55.890;37.664;2023-12-20T11:16:21;97447.13;;;6.06;100.00
61900;BME280;47853;55.890;37.664;2023-12-20T11:18:51;97511.84;;;6.08;100.00
61900;BME280;47853;55.890;37.664;2023-12-20T11:21:30;97438.19;;;5.70;100.00
61900;BME280;47853;55.890;37.664;2023-12-20T11:24:01;97478.38;;;6.09;100.00
61900;BME280;47853;55.890;37.664;2023-12-20T11:26:33;97506.13;;;6.85;100.00
61900;BME280;47853;55.890;37.664;2023-12-20T11:32:03;97448.28;;;6.40;100.00
61900;BME280;47853;55.890;37.664;2023-12-20T11:34:32;97506.53;;;6.89;100.00
61900;BME280;47853;55.890;37.664;2023-12-20T11:37:02;97443.56;;;5.99;100.00
61900;BME280;47853;55.890;37.664;2023-12-20T11:39:33;97441.00;;;6.42;100.00
61900;BME280;47853;55.890;37.664;2023-12-20T11:42:04;97460.88;;;6.88;100.00
61900;BME280;47853;55.890;37.664;2023-12-20T11:44:30;97500.38;;;7.32;100.00
61900;BME280;47853;55.890;37.664;2023-12-20T11:46:58;97515.28;;;6.89;100.00
61900;BME280;47853;55.890;37.664;2023-12-20T11:49:26;97475.56;;;6.97;100.00
61900;BME280;47853;55.890;37.664;2023-12-20T11:51:52;97462.03;;;7.07;100.00
61900;BME280;47853;55.890;37.664;2023-12-20T11:54:26;97468.81;;;6.95;100.00
61900;BME280;47853;55.890;37.664;2023-12-20T11:56:51;97486.19;;;6.82;100.00
61900;BME280;47853;55.890;37.664;2023-12-20T11:59:17;97460.06;;;7.51;100.00
61900;BME280;47853;55.890;37.664;2023-12-20T12:01:48;97502.88;;;7.82;100.00
61900;BME280;47853;55.890;37.664;2023-12-20T12:04:14;97469.06;;;7.00;100.00
61900;BME280;47853;55.890;37.664;2023-12-20T12:06:39;97514.19;;;6.62;100.00
61900;BME280;47853;55.890;37.664;2023-12-20T12:09:05;97499.16;;;7.34;100.00
61900;BME280;47853;55.890;37.664;2023-12-20T12:11:30;97533.44;;;6.77;100.00
61900;BME280;47853;55.890;37.664;2023-12-20T12:13:56;97537.75;;;7.35;100.00
61900;BME280;47853;55.890;37.664;2023-12-20T12:16:21;97532.19;;;7.52;100.00
61900;BME280;47853;55.890;37.664;2023-12-20T12:18:58;97538.63;;;7.14;100.00
61900;BME280;47853;55.890;37.664;2023-12-20T12:21:24;97545.50;;;6.65;100.00
61900;BME280;47853;55.890;37.664;2023-12-20T12:23:50;97538.28;;;6.95;100.00
61900;BME280;47853;55.890;37.664;2023-12-20T12:26:15;97529.47;;;6.45;100.00
61900;BME280;47853;55.890;37.664;2023-12-20T12:28:41;97539.84;;;7.11;100.00
61900;BME280;47853;55.890;37.664;2023-12-20T12:31:07;97537.91;;;6.99;100.00
61900;BME280;47853;55.890;37.664;2023-12-20T12:33:33;97544.09;;;6.47;100.00
61900;BME280;47853;55.890;37.664;2023-12-20T12:35:58;97554.22;;;7.09;100.00
61900;BME280;47853;55.890;37.664;2023-12-20T12:38:24;97552.06;;;7.19;100.00
61900;BME280;47853;55.890;37.664;2023-12-20T12:40:50;97567.31;;;6.59;100.00
61900;BME280;47853;55.890;37.664;2023-12-20T12:43:16;97556.94;;;7.22;100.00
61900;BME280;47853;55.890;37.664;2023-12-20T12:45:41;97559.50;;;7.37;100.00
61900;BME280;47853;55.890;37.664;2023-12-20T12:48:07;97578.81;;;7.38;100.00
61900;BME280;47853;55.890;37.664;2023-12-20T12:50:32;97586.97;;;7.15;100.00
61900;BME280;47853;55.890;37.664;2023-12-20T12:52:58;97571.19;;;7.00;100.00
61900;BME280;47853;55.890;37.664;2023-12-20T12:55:23;97602.72;;;6.49;100.00
61900;BME280;47853;55.890;37.664;2023-12-20T12:57:48;97585.31;;;6.70;100.00
61900;BME280;47853;55.890;37.664;2023-12-20T13:00:17;97578.00;;;6.50;100.00
61900;BME280;47853;55.890;37.664;2023-12-20T13:02:42;97581.94;;;6.98;100.00
61900;BME280;47853;55.890;37.664;2023-12-20T13:05:08;97582.06;;;6.16;100.00
61900;BME280;47853;55.890;37.664;2023-12-20T13:07:34;97578.25;;;6.04;100.00
61900;BME280;47853;55.890;37.664;2023-12-20T13:09:59;97566.84;;;6.33;100.00
61900;BME280;47853;55.890;37.664;2023-12-20T13:12:24;97563.56;;;6.46;100.00
61900;BME280;47853;55.890;37.664;2023-12-20T13:14:50;97559.50;;;6.65;100.00
61900;BME280;47853;55.890;37.664;2023-12-20T13:17:15;97562.19;;;6.50;100.00
61900;BME280;47853;55.890;37.664;2023-12-20T13:19:41;97558.06;;;6.26;100.00
61900;BME280;47853;55.890;37.664;2023-12-20T13:22:06;97562.69;;;6.61;100.00
61900;BME280;47853;55.890;37.664;2023-12-20T13:24:32;97556.19;;;6.78;100.00
61900;BME280;47853;55.890;37.664;2023-12-20T13:26:57;97564.28;;;6.03;100.00
61900;BME280;47853;55.890;37.664;2023-12-20T13:29:24;97573.25;;;6.82;100.00
61900;BME280;47853;55.890;37.664;2023-12-20T13:31:49;97561.06;;;6.60;100.00
61900;BME280;47853;55.890;37.664;2023-12-20T13:34:15;97564.81;;;6.50;100.00
61900;BME280;47853;55.890;37.664;2023-12-20T13:36:40;97558.78;;;6.57;100.00
61900;BME280;47853;55.890;37.664;2023-12-20T13:39:06;97559.34;;;7.17;100.00
61900;BME280;47853;55.890;37.664;2023-12-20T13:41:31;97564.09;;;6.78;100.00